sensor_id;sensor_type;location;lat;lon;timestamp;pressure;altitude;pressure_sealevel;temperature;humidity
39937;BME280;27803;42.740;23.340;2022-12-07T00:01:34;95525.50;;;5.82;100.00
39937;BME280;27803;42.740;23.340;2022-12-07T00:04:01;95539.28;;;5.82;100.00
39937;BME280;27803;42.740;23.340;2022-12-07T00:06:35;95515.44;;;5.79;100.00
39937;BME280;27803;42.740;23.340;2022-12-07T00:09:02;95504.41;;;5.77;100.00
39937;BME280;27803;42.740;23.340;2022-12-07T00:11:28;95521.59;;;5.86;100.00
39937;BME280;27803;42.740;23.340;2022-12-07T00:13:56;95498.88;;;5.88;100.00
39937;BME280;27803;42.740;23.340;2022-12-07T00:16:26;95528.59;;;5.94;100.00
39937;BME280;27803;42.740;23.340;2022-12-07T00:18:52;95526.63;;;5.96;100.00
39937;BME280;27803;42.740;23.340;2022-12-07T00:21:23;95509.94;;;5.98;100.00
39937;BME280;27803;42.740;23.340;2022-12-07T00:23:50;95505.34;;;6.08;100.00
39937;BME280;27803;42.740;23.340;2022-12-07T00:26:16;95517.50;;;6.16;100.00
39937;BME280;27803;42.740;23.340;2022-12-07T00:28:47;95515.09;;;6.06;100.00
39937;BME280;27803;42.740;23.340;2022-12-07T00:31:13;95531.78;;;6.20;100.00
39937;BME280;27803;42.740;23.340;2022-12-07T00:33:39;95526.41;;;6.22;100.00
39937;BME280;27803;42.740;23.340;2022-12-07T00:36:07;95522.19;;;6.29;100.00
39937;BME280;27803;42.740;23.340;2022-12-07T00:38:35;95526.09;;;6.25;100.00
39937;BME280;27803;42.740;23.340;2022-12-07T00:41:08;95533.50;;;6.36;100.00
39937;BME280;27803;42.740;23.340;2022-12-07T00:43:34;95533.84;;;6.33;100.00
39937;BME280;27803;42.740;23.340;2022-12-07T00:45:59;95521.84;;;6.32;100.00
39937;BME280;27803;42.740;23.340;2022-12-07T00:48:25;95504.03;;;6.20;100.00
39937;BME280;27803;42.740;23.340;2022-12-07T00:50:51;95522.50;;;6.26;100.00
39937;BME280;27803;42.740;23.340;2022-12-07T00:53:17;95493.84;;;6.11;100.00
39937;BME280;27803;42.740;23.340;2022-12-07T00:55:43;95493.34;;;6.15;100.00
39937;BME280;27803;42.740;23.340;2022-12-07T00:58:09;95518.94;;;6.27;100.00
39937;BME280;27803;42.740;23.340;2022-12-07T01:00:38;95515.38;;;6.28;100.00
39937;BME280;27803;42.740;23.340;2022-12-07T01:03:05;95513.59;;;6.20;100.00
39937;BME280;27803;42.740;23.340;2022-12-07T01:05:31;95502.06;;;6.23;100.00
39937;BME280;27803;42.740;23.340;2022-12-07T01:07:56;95520.06;;;6.24;100.00
39937;BME280;27803;42.740;23.340;2022-12-07T01:10:22;95486.72;;;5.97;100.00
39937;BME280;27803;42.740;23.340;2022-12-07T01:12:47;95516.69;;;6.15;100.00
39937;BME280;27803;42.740;23.340;2022-12-07T01:15:13;95533.22;;;6.23;100.00
39937;BME280;27803;42.740;23.340;2022-12-07T01:17:38;95518.97;;;6.18;100.00
39937;BME280;27803;42.740;23.340;2022-12-07T01:20:04;95512.78;;;6.19;100.00
39937;BME280;27803;42.740;23.340;2022-12-07T01:22:30;95507.88;;;6.33;100.00
39937;BME280;27803;42.740;23.340;2022-12-07T01:24:55;95509.88;;;6.14;100.00
39937;BME280;27803;42.740;23.340;2022-12-07T01:27:21;95498.69;;;6.14;100.00
39937;BME280;27803;42.740;23.340;2022-12-07T01:29:46;95504.63;;;6.31;100.00
39937;BME280;27803;42.740;23.340;2022-12-07T01:32:12;95504.63;;;6.31;100.00
39937;BME280;27803;42.740;23.340;2022-12-07T01:34:37;95500.88;;;6.41;100.00
39937;BME280;27803;42.740;23.340;2022-12-07T01:37:03;95463.94;;;6.23;100.00
39937;BME280;27803;42.740;23.340;2022-12-07T01:39:28;95506.53;;;6.45;100.00
39937;BME280;27803;42.740;23.340;2022-12-07T01:41:53;95492.47;;;6.31;100.00
39937;BME280;27803;42.740;23.340;2022-12-07T01:51:47;95511.38;;;6.48;100.00
39937;BME280;27803;42.740;23.340;2022-12-07T01:54:14;95467.97;;;6.26;100.00
39937;BME280;27803;42.740;23.340;2022-12-07T01:56:45;95502.19;;;6.37;100.00
39937;BME280;27803;42.740;23.340;2022-12-07T01:59:15;95491.63;;;6.39;100.00
39937;BME280;27803;42.740;23.340;2022-12-07T02:01:41;95459.59;;;6.07;100.00
39937;BME280;27803;42.740;23.340;2022-12-07T02:04:07;95499.03;;;6.11;100.00
39937;BME280;27803;42.740;23.340;2022-12-07T02:06:33;95491.63;;;5.67;100.00
39937;BME280;27803;42.740;23.340;2022-12-07T02:09:00;95491.44;;;5.77;100.00
39937;BME280;27803;42.740;23.340;2022-12-07T02:11:25;95496.31;;;5.72;100.00
39937;BME280;27803;42.740;23.340;2022-12-07T02:13:51;95475.72;;;5.70;100.00
39937;BME280;27803;42.740;23.340;2022-12-07T02:22:34;95470.06;;;5.67;100.00
39937;BME280;27803;42.740;23.340;2022-12-07T02:25:30;95485.94;;;5.80;100.00
39937;BME280;27803;42.740;23.340;2022-12-07T02:30:40;95455.75;;;5.87;100.00
39937;BME280;27803;42.740;23.340;2022-12-07T02:33:21;95465.16;;;5.96;100.00
39937;BME280;27803;42.740;23.340;2022-12-07T02:43:28;95463.53;;;5.95;100.00
39937;BME280;27803;42.740;23.340;2022-12-07T02:45:59;95471.31;;;5.87;100.00
39937;BME280;27803;42.740;23.340;2022-12-07T02:48:27;95466.47;;;5.92;100.00
39937;BME280;27803;42.740;23.340;2022-12-07T02:50:54;95460.31;;;5.93;100.00
39937;BME280;27803;42.740;23.340;2022-12-07T02:53:40;95467.91;;;5.95;100.00
39937;BME280;27803;42.740;23.340;2022-12-07T03:07:10;95459.03;;;5.73;100.00
39937;BME280;27803;42.740;23.340;2022-12-07T03:09:53;95449.97;;;5.61;100.00
39937;BME280;27803;42.740;23.340;2022-12-07T03:12:32;95443.81;;;5.53;100.00
39937;BME280;27803;42.740;23.340;2022-12-07T03:15:13;95456.31;;;5.42;100.00
39937;BME280;27803;42.740;23.340;2022-12-07T03:17:42;95448.84;;;5.47;100.00
39937;BME280;27803;42.740;23.340;2022-12-07T03:20:11;95431.38;;;5.33;100.00
39937;BME280;27803;42.740;23.340;2022-12-07T03:22:39;95445.78;;;5.51;100.00
39937;BME280;27803;42.740;23.340;2022-12-07T03:25:10;95416.34;;;5.20;100.00
39937;BME280;27803;42.740;23.340;2022-12-07T03:27:46;95412.56;;;5.31;100.00
39937;BME280;27803;42.740;23.340;2022-12-07T03:30:18;95406.63;;;5.14;100.00
39937;BME280;27803;42.740;23.340;2022-12-07T03:32:49;95454.69;;;5.33;100.00
39937;BME280;27803;42.740;23.340;2022-12-07T03:35:40;95443.84;;;5.45;100.00
39937;BME280;27803;42.740;23.340;2022-12-07T03:43:12;95448.84;;;5.47;100.00
39937;BME280;27803;42.740;23.340;2022-12-07T03:45:41;95449.66;;;5.47;100.00
39937;BME280;27803;42.740;23.340;2022-12-07T03:48:09;95446.44;;;5.45;100.00
39937;BME280;27803;42.740;23.340;2022-12-07T03:50:44;95445.94;;;5.50;100.00
39937;BME280;27803;42.740;23.340;2022-12-07T03:53:24;95413.56;;;5.21;100.00
39937;BME280;27803;42.740;23.340;2022-12-07T03:55:52;95455.84;;;5.22;100.00
39937;BME280;27803;42.740;23.340;2022-12-07T03:58:21;95452.97;;;5.17;100.00
39937;BME280;27803;42.740;23.340;2022-12-07T04:00:49;95409.56;;;4.86;100.00
39937;BME280;27803;42.740;23.340;2022-12-07T04:03:15;95453.91;;;4.92;100.00
39937;BME280;27803;42.740;23.340;2022-12-07T04:05:40;95455.53;;;4.76;100.00
39937;BME280;27803;42.740;23.340;2022-12-07T04:08:06;95416.28;;;4.47;100.00
39937;BME280;27803;42.740;23.340;2022-12-07T04:10:32;95446.09;;;4.51;100.00
39937;BME280;27803;42.740;23.340;2022-12-07T04:12:57;95432.78;;;4.38;100.00
39937;BME280;27803;42.740;23.340;2022-12-07T04:15:23;95404.25;;;4.13;100.00
39937;BME280;27803;42.740;23.340;2022-12-07T04:17:48;95405.34;;;4.03;100.00
39937;BME280;27803;42.740;23.340;2022-12-07T04:20:14;95393.06;;;4.05;100.00
39937;BME280;27803;42.740;23.340;2022-12-07T04:22:39;95428.88;;;4.34;100.00
39937;BME280;27803;42.740;23.340;2022-12-07T04:25:05;95430.19;;;4.38;100.00
39937;BME280;27803;42.740;23.340;2022-12-07T04:27:31;95438.94;;;4.37;100.00
39937;BME280;27803;42.740;23.340;2022-12-07T04:29:56;95393.75;;;4.15;100.00
39937;BME280;27803;42.740;23.340;2022-12-07T04:32:22;95432.47;;;4.41;100.00
39937;BME280;27803;42.740;23.340;2022-12-07T04:34:48;95433.13;;;4.43;100.00
39937;BME280;27803;42.740;23.340;2022-12-07T04:37:13;95428.56;;;4.37;100.00
39937;BME280;27803;42.740;23.340;2022-12-07T04:39:39;95425.66;;;4.32;100.00
39937;BME280;27803;42.740;23.340;2022-12-07T04:42:04;95406.69;;;4.23;100.00
39937;BME280;27803;42.740;23.340;2022-12-07T04:44:30;95451.25;;;4.51;100.00
39937;BME280;27803;42.740;23.340;2022-12-07T04:46:56;95418.72;;;4.40;100.00
39937;BME280;27803;42.740;23.340;2022-12-07T04:49:22;95430.22;;;4.46;100.00
39937;BME280;27803;42.740;23.340;2022-12-07T04:51:49;95397.47;;;4.20;100.00
39937;BME280;27803;42.740;23.340;2022-12-07T04:54:15;95400.72;;;4.22;100.00
39937;BME280;27803;42.740;23.340;2022-12-07T04:56:41;95451.91;;;4.45;100.00
39937;BME280;27803;42.740;23.340;2022-12-07T04:59:07;95434.91;;;4.42;100.00
39937;BME280;27803;42.740;23.340;2022-12-07T05:01:33;95439.56;;;4.31;100.00
39937;BME280;27803;42.740;23.340;2022-12-07T05:03:58;95401.34;;;4.16;100.00
39937;BME280;27803;42.740;23.340;2022-12-07T05:06:24;95420.44;;;4.23;100.00
39937;BME280;27803;42.740;23.340;2022-12-07T05:08:50;95405.72;;;4.16;100.00
39937;BME280;27803;42.740;23.340;2022-12-07T05:11:15;95403.59;;;4.11;100.00
39937;BME280;27803;42.740;23.340;2022-12-07T05:14:01;95430.00;;;4.23;100.00
39937;BME280;27803;42.740;23.340;2022-12-07T05:16:26;95427.59;;;4.30;100.00
39937;BME280;27803;42.740;23.340;2022-12-07T05:18:52;95397.78;;;4.17;100.00
39937;BME280;27803;42.740;23.340;2022-12-07T05:21:17;95434.88;;;4.34;100.00
39937;BME280;27803;42.740;23.340;2022-12-07T05:23:43;95391.97;;;4.15;100.00
39937;BME280;27803;42.740;23.340;2022-12-07T05:26:08;95392.28;;;4.20;100.00
39937;BME280;27803;42.740;23.340;2022-12-07T05:28:33;95433.69;;;4.20;100.00
39937;BME280;27803;42.740;23.340;2022-12-07T05:30:59;95397.75;;;4.01;100.00
39937;BME280;27803;42.740;23.340;2022-12-07T05:33:24;95425.97;;;4.29;100.00
39937;BME280;27803;42.740;23.340;2022-12-07T05:35:49;95426.59;;;4.22;100.00
39937;BME280;27803;42.740;23.340;2022-12-07T05:38:15;95431.47;;;4.34;100.00
39937;BME280;27803;42.740;23.340;2022-12-07T05:40:40;95435.69;;;4.35;100.00
39937;BME280;27803;42.740;23.340;2022-12-07T05:43:06;95450.91;;;4.38;100.00
39937;BME280;27803;42.740;23.340;2022-12-07T05:45:31;95431.50;;;4.42;100.00
39937;BME280;27803;42.740;23.340;2022-12-07T05:47:56;95427.59;;;4.38;100.00
39937;BME280;27803;42.740;23.340;2022-12-07T05:50:22;95429.88;;;4.41;100.00
39937;BME280;27803;42.740;23.340;2022-12-07T05:52:47;95425.66;;;4.32;100.00
39937;BME280;27803;42.740;23.340;2022-12-07T05:55:12;95432.13;;;4.36;100.00
39937;BME280;27803;42.740;23.340;2022-12-07T05:57:38;95396.81;;;4.18;100.00
39937;BME280;27803;42.740;23.340;2022-12-07T06:00:04;95423.72;;;4.34;100.00
39937;BME280;27803;42.740;23.340;2022-12-07T06:02:30;95424.97;;;4.21;100.00
39937;BME280;27803;42.740;23.340;2022-12-07T06:04:55;95441.47;;;4.20;100.00
39937;BME280;27803;42.740;23.340;2022-12-07T06:07:21;95396.13;;;4.00;100.00
39937;BME280;27803;42.740;23.340;2022-12-07T06:09:46;95431.09;;;4.12;100.00
39937;BME280;27803;42.740;23.340;2022-12-07T06:12:12;95403.16;;;3.82;100.00
39937;BME280;27803;42.740;23.340;2022-12-07T06:14:58;95439.75;;;3.95;100.00
39937;BME280;27803;42.740;23.340;2022-12-07T06:17:23;95393.44;;;3.76;100.00
39937;BME280;27803;42.740;23.340;2022-12-07T06:19:49;95426.88;;;4.11;100.00
39937;BME280;27803;42.740;23.340;2022-12-07T06:22:14;95418.50;;;4.17;100.00
39937;BME280;27803;42.740;23.340;2022-12-07T06:24:41;95426.53;;;4.06;100.00
39937;BME280;27803;42.740;23.340;2022-12-07T06:27:07;95435.59;;;4.10;100.00
39937;BME280;27803;42.740;23.340;2022-12-07T06:29:32;95436.63;;;4.25;100.00
39937;BME280;27803;42.740;23.340;2022-12-07T06:31:58;95441.34;;;4.30;100.00
39937;BME280;27803;42.740;23.340;2022-12-07T06:34:24;95380.31;;;4.19;100.00
39937;BME280;27803;42.740;23.340;2022-12-07T06:36:51;95407.22;;;4.43;100.00
39937;BME280;27803;42.740;23.340;2022-12-07T06:39:19;95425.41;;;4.67;100.00
39937;BME280;27803;42.740;23.340;2022-12-07T06:41:45;95443.84;;;4.72;100.00
39937;BME280;27803;42.740;23.340;2022-12-07T06:44:11;95444.81;;;4.71;100.00
39937;BME280;27803;42.740;23.340;2022-12-07T06:46:37;95403.38;;;4.63;100.00
39937;BME280;27803;42.740;23.340;2022-12-07T06:49:03;95434.66;;;4.86;100.00
39937;BME280;27803;42.740;23.340;2022-12-07T06:51:29;95400.16;;;4.69;100.00
39937;BME280;27803;42.740;23.340;2022-12-07T06:53:55;95441.63;;;5.02;100.00
39937;BME280;27803;42.740;23.340;2022-12-07T06:56:20;95414.72;;;4.95;100.00
39937;BME280;27803;42.740;23.340;2022-12-07T06:58:46;95409.88;;;4.92;100.00
39937;BME280;27803;42.740;23.340;2022-12-07T07:01:13;95417.00;;;4.98;100.00
39937;BME280;27803;42.740;23.340;2022-12-07T07:03:39;95415.38;;;4.88;100.00
39937;BME280;27803;42.740;23.340;2022-12-07T07:06:05;95431.25;;;5.10;100.00
39937;BME280;27803;42.740;23.340;2022-12-07T07:08:31;95445.47;;;5.22;100.00
39937;BME280;27803;42.740;23.340;2022-12-07T07:10:56;95451.00;;;5.03;100.00
39937;BME280;27803;42.740;23.340;2022-12-07T07:13:21;95420.88;;;4.77;100.00
39937;BME280;27803;42.740;23.340;2022-12-07T07:15:47;95441.94;;;4.90;100.00
39937;BME280;27803;42.740;23.340;2022-12-07T07:18:12;95451.16;;;5.01;100.00
39937;BME280;27803;42.740;23.340;2022-12-07T07:20:38;95448.22;;;5.20;100.00
39937;BME280;27803;42.740;23.340;2022-12-07T07:23:03;95453.56;;;5.27;100.00
39937;BME280;27803;42.740;23.340;2022-12-07T07:25:29;95450.81;;;5.29;100.00
39937;BME280;27803;42.740;23.340;2022-12-07T07:27:55;95436.38;;;5.42;100.00
39937;BME280;27803;42.740;23.340;2022-12-07T07:30:20;95456.81;;;5.45;100.00
39937;BME280;27803;42.740;23.340;2022-12-07T07:32:45;95424.72;;;5.38;100.00
39937;BME280;27803;42.740;23.340;2022-12-07T07:35:11;95451.91;;;5.59;100.00
39937;BME280;27803;42.740;23.340;2022-12-07T07:37:36;95424.06;;;5.44;100.00
39937;BME280;27803;42.740;23.340;2022-12-07T07:40:02;95456.75;;;5.78;100.00
39937;BME280;27803;42.740;23.340;2022-12-07T07:42:27;95432.91;;;5.82;100.00
39937;BME280;27803;42.740;23.340;2022-12-07T07:44:53;95457.69;;;6.01;100.00
39937;BME280;27803;42.740;23.340;2022-12-07T07:47:18;95454.75;;;6.04;100.00
39937;BME280;27803;42.740;23.340;2022-12-07T07:49:43;95477.91;;;6.14;100.00
39937;BME280;27803;42.740;23.340;2022-12-07T07:52:09;95460.13;;;6.42;100.00
39937;BME280;27803;42.740;23.340;2022-12-07T07:54:35;95417.63;;;6.35;100.00
39937;BME280;27803;42.740;23.340;2022-12-07T07:57:00;95454.50;;;6.61;100.00
39937;BME280;27803;42.740;23.340;2022-12-07T07:59:26;95453.25;;;6.80;100.00
39937;BME280;27803;42.740;23.340;2022-12-07T08:01:51;95454.00;;;6.66;100.00
39937;BME280;27803;42.740;23.340;2022-12-07T08:04:17;95461.53;;;6.52;100.00
39937;BME280;27803;42.740;23.340;2022-12-07T08:06:42;95473.09;;;6.73;100.00
39937;BME280;27803;42.740;23.340;2022-12-07T08:09:08;95465.22;;;6.89;100.00
39937;BME280;27803;42.740;23.340;2022-12-07T08:11:34;95471.22;;;6.90;100.00
39937;BME280;27803;42.740;23.340;2022-12-07T08:14:01;95447.00;;;6.66;100.00
39937;BME280;27803;42.740;23.340;2022-12-07T08:16:26;95437.97;;;6.54;100.00
39937;BME280;27803;42.740;23.340;2022-12-07T08:18:52;95439.50;;;6.71;100.00
39937;BME280;27803;42.740;23.340;2022-12-07T08:21:17;95465.38;;;6.88;100.00
39937;BME280;27803;42.740;23.340;2022-12-07T08:23:43;95451.13;;;6.83;100.00
39937;BME280;27803;42.740;23.340;2022-12-07T08:26:11;95478.66;;;6.93;100.00
39937;BME280;27803;42.740;23.340;2022-12-07T08:28:37;95440.66;;;6.69;100.00
39937;BME280;27803;42.740;23.340;2022-12-07T08:31:05;95480.97;;;6.88;100.00
39937;BME280;27803;42.740;23.340;2022-12-07T08:33:31;95480.38;;;6.77;100.00
39937;BME280;27803;42.740;23.340;2022-12-07T08:36:06;95452.88;;;6.60;100.00
39937;BME280;27803;42.740;23.340;2022-12-07T08:38:32;95439.25;;;6.58;100.00
39937;BME280;27803;42.740;23.340;2022-12-07T08:40:59;95468.03;;;6.79;100.00
39937;BME280;27803;42.740;23.340;2022-12-07T08:43:24;95434.88;;;6.81;100.00
39937;BME280;27803;42.740;23.340;2022-12-07T08:45:58;95463.50;;;6.96;100.00
39937;BME280;27803;42.740;23.340;2022-12-07T08:48:29;95458.44;;;7.03;100.00
39937;BME280;27803;42.740;23.340;2022-12-07T08:50:56;95460.06;;;6.81;100.00
39937;BME280;27803;42.740;23.340;2022-12-07T08:53:21;95457.63;;;6.79;100.00
39937;BME280;27803;42.740;23.340;2022-12-07T08:55:47;95455.09;;;6.71;100.00
39937;BME280;27803;42.740;23.340;2022-12-07T08:58:13;95428.59;;;6.45;100.00
39937;BME280;27803;42.740;23.340;2022-12-07T09:00:39;95432.19;;;6.44;100.00
39937;BME280;27803;42.740;23.340;2022-12-07T09:03:04;95437.94;;;6.31;100.00
39937;BME280;27803;42.740;23.340;2022-12-07T09:05:30;95437.00;;;6.55;100.00
39937;BME280;27803;42.740;23.340;2022-12-07T09:08:00;95437.28;;;6.60;100.00
39937;BME280;27803;42.740;23.340;2022-12-07T09:10:26;95438.91;;;6.61;100.00
39937;BME280;27803;42.740;23.340;2022-12-07T09:12:52;95429.69;;;6.81;100.00
39937;BME280;27803;42.740;23.340;2022-12-07T09:15:17;95433.47;;;6.94;100.00
39937;BME280;27803;42.740;23.340;2022-12-07T09:17:43;95406.25;;;6.90;100.00
39937;BME280;27803;42.740;23.340;2022-12-07T09:20:09;95426.47;;;7.17;100.00
39937;BME280;27803;42.740;23.340;2022-12-07T09:22:34;95433.69;;;7.07;100.00
39937;BME280;27803;42.740;23.340;2022-12-07T09:25:01;95411.97;;;7.00;100.00
39937;BME280;27803;42.740;23.340;2022-12-07T09:27:27;95442.56;;;7.35;100.00
39937;BME280;27803;42.740;23.340;2022-12-07T09:29:53;95421.72;;;7.58;100.00
39937;BME280;27803;42.740;23.340;2022-12-07T09:32:18;95429.53;;;7.73;100.00
39937;BME280;27803;42.740;23.340;2022-12-07T09:34:43;95436.09;;;7.98;100.00
39937;BME280;27803;42.740;23.340;2022-12-07T09:37:09;95421.81;;;7.94;100.00
39937;BME280;27803;42.740;23.340;2022-12-07T09:39:37;95416.34;;;8.04;100.00
39937;BME280;27803;42.740;23.340;2022-12-07T09:42:04;95386.63;;;7.98;100.00
39937;BME280;27803;42.740;23.340;2022-12-07T09:44:31;95408.88;;;8.15;100.00
39937;BME280;27803;42.740;23.340;2022-12-07T09:46:56;95375.84;;;8.01;100.00
39937;BME280;27803;42.740;23.340;2022-12-07T09:49:24;95409.75;;;8.23;100.00
39937;BME280;27803;42.740;23.340;2022-12-07T09:54:28;95412.72;;;8.20;100.00
39937;BME280;27803;42.740;23.340;2022-12-07T09:56:54;95385.91;;;8.04;100.00
39937;BME280;27803;42.740;23.340;2022-12-07T09:59:20;95401.13;;;8.37;100.00
39937;BME280;27803;42.740;23.340;2022-12-07T10:01:47;95409.22;;;8.42;100.00
39937;BME280;27803;42.740;23.340;2022-12-07T10:04:16;95388.50;;;8.76;100.00
39937;BME280;27803;42.740;23.340;2022-12-07T10:06:43;95410.47;;;8.89;100.00
39937;BME280;27803;42.740;23.340;2022-12-07T10:09:13;95395.81;;;9.09;100.00
39937;BME280;27803;42.740;23.340;2022-12-07T10:12:15;95396.56;;;9.03;100.00
39937;BME280;27803;42.740;23.340;2022-12-07T10:14:55;95374.91;;;9.02;100.00
39937;BME280;27803;42.740;23.340;2022-12-07T10:17:29;95401.34;;;9.21;100.00
39937;BME280;27803;42.740;23.340;2022-12-07T10:20:18;95397.38;;;9.53;100.00
39937;BME280;27803;42.740;23.340;2022-12-07T10:23:04;95384.25;;;9.46;100.00
39937;BME280;27803;42.740;23.340;2022-12-07T10:25:33;95380.13;;;9.30;100.00
39937;BME280;27803;42.740;23.340;2022-12-07T10:30:46;95334.47;;;8.92;100.00
39937;BME280;27803;42.740;23.340;2022-12-07T10:35:56;95352.03;;;9.04;100.00
39937;BME280;27803;42.740;23.340;2022-12-07T10:38:26;95344.50;;;9.16;100.00
39937;BME280;27803;42.740;23.340;2022-12-07T10:41:11;95338.69;;;8.93;100.00
39937;BME280;27803;42.740;23.340;2022-12-07T10:43:36;95330.78;;;9.07;100.00
39937;BME280;27803;42.740;23.340;2022-12-07T10:49:11;95349.69;;;9.72;100.00
39937;BME280;27803;42.740;23.340;2022-12-07T10:52:03;95355.53;;;9.74;100.00
39937;BME280;27803;42.740;23.340;2022-12-07T10:57:35;95359.44;;;9.91;100.00
39937;BME280;27803;42.740;23.340;2022-12-07T11:00:21;95344.53;;;9.85;100.00
39937;BME280;27803;42.740;23.340;2022-12-07T11:08:34;95329.28;;;9.89;100.00
39937;BME280;27803;42.740;23.340;2022-12-07T11:11:23;95313.41;;;9.90;100.00
39937;BME280;27803;42.740;23.340;2022-12-07T11:14:20;95320.75;;;10.15;100.00
39937;BME280;27803;42.740;23.340;2022-12-07T11:17:14;95318.13;;;10.15;100.00
39937;BME280;27803;42.740;23.340;2022-12-07T11:20:20;95314.47;;;10.02;100.00
39937;BME280;27803;42.740;23.340;2022-12-07T11:23:21;95301.06;;;10.19;100.00
39937;BME280;27803;42.740;23.340;2022-12-07T11:26:10;95313.19;;;9.85;100.00
39937;BME280;27803;42.740;23.340;2022-12-07T11:28:55;95299.78;;;10.01;100.00
39937;BME280;27803;42.740;23.340;2022-12-07T11:32:09;95303.03;;;10.03;100.00
39937;BME280;27803;42.740;23.340;2022-12-07T11:37:03;95291.25;;;10.21;100.00
39937;BME280;27803;42.740;23.340;2022-12-07T11:39:51;95284.84;;;10.30;100.00
39937;BME280;27803;42.740;23.340;2022-12-07T11:43:01;95283.03;;;10.37;100.00
39937;BME280;27803;42.740;23.340;2022-12-07T11:45:32;95285.25;;;10.47;100.00
39937;BME280;27803;42.740;23.340;2022-12-07T11:48:05;95282.44;;;10.61;100.00
39937;BME280;27803;42.740;23.340;2022-12-07T11:50:43;95248.25;;;10.63;100.00
39937;BME280;27803;42.740;23.340;2022-12-07T11:53:18;95277.22;;;11.01;100.00
39937;BME280;27803;42.740;23.340;2022-12-07T11:55:58;95270.38;;;11.13;100.00
39937;BME280;27803;42.740;23.340;2022-12-07T12:03:45;95264.72;;;11.23;100.00
39937;BME280;27803;42.740;23.340;2022-12-07T12:06:12;95271.97;;;11.21;100.00
39937;BME280;27803;42.740;23.340;2022-12-07T12:09:14;95247.41;;;11.08;100.00
39937;BME280;27803;42.740;23.340;2022-12-07T12:14:27;95262.53;;;11.06;100.00
39937;BME280;27803;42.740;23.340;2022-12-07T12:22:40;95245.75;;;11.40;100.00
39937;BME280;27803;42.740;23.340;2022-12-07T12:25:21;95232.44;;;11.49;100.00
39937;BME280;27803;42.740;23.340;2022-12-07T12:27:49;95234.44;;;11.47;100.00
39937;BME280;27803;42.740;23.340;2022-12-07T12:32:50;95223.56;;;11.50;100.00
39937;BME280;27803;42.740;23.340;2022-12-07T12:37:53;95222.41;;;11.32;100.00
39937;BME280;27803;42.740;23.340;2022-12-07T12:42:50;95220.38;;;11.41;100.00
39937;BME280;27803;42.740;23.340;2022-12-07T12:53:11;95231.69;;;11.28;100.00
39937;BME280;27803;42.740;23.340;2022-12-07T13:01:33;95202.50;;;11.18;100.00
39937;BME280;27803;42.740;23.340;2022-12-07T13:03:32;95220.44;;;11.15;100.00
39937;BME280;27803;42.740;23.340;2022-12-07T13:08:50;95218.44;;;11.10;100.00
39937;BME280;27803;42.740;23.340;2022-12-07T13:11:19;95180.22;;;10.96;100.00
39937;BME280;27803;42.740;23.340;2022-12-07T13:13:45;95209.19;;;11.07;100.00
39937;BME280;27803;42.740;23.340;2022-12-07T13:18:37;95176.38;;;11.05;100.00
39937;BME280;27803;42.740;23.340;2022-12-07T13:26:16;95170.09;;;11.19;100.00
39937;BME280;27803;42.740;23.340;2022-12-07T13:29:04;95205.03;;;11.45;100.00
39937;BME280;27803;42.740;23.340;2022-12-07T13:31:54;95199.78;;;11.51;100.00
39937;BME280;27803;42.740;23.340;2022-12-07T13:34:40;95203.81;;;11.54;100.00
39937;BME280;27803;42.740;23.340;2022-12-07T13:37:27;95184.44;;;11.61;100.00
39937;BME280;27803;42.740;23.340;2022-12-07T13:39:54;95190.44;;;11.68;100.00
39937;BME280;27803;42.740;23.340;2022-12-07T13:42:27;95202.50;;;11.83;100.00
39937;BME280;27803;42.740;23.340;2022-12-07T13:44:53;95161.84;;;11.67;100.00
39937;BME280;27803;42.740;23.340;2022-12-07T13:47:35;95201.28;;;11.85;100.00
39937;BME280;27803;42.740;23.340;2022-12-07T13:52:50;95202.63;;;11.94;100.00
39937;BME280;27803;42.740;23.340;2022-12-07T13:55:16;95198.75;;;12.03;100.00
39937;BME280;27803;42.740;23.340;2022-12-07T13:57:44;95209.84;;;12.05;100.00
39937;BME280;27803;42.740;23.340;2022-12-07T14:00:16;95196.72;;;12.05;100.00
39937;BME280;27803;42.740;23.340;2022-12-07T14:05:28;95196.41;;;11.89;100.00
39937;BME280;27803;42.740;23.340;2022-12-07T14:07:59;95198.06;;;11.83;100.00
39937;BME280;27803;42.740;23.340;2022-12-07T14:10:33;95187.97;;;11.87;100.00
39937;BME280;27803;42.740;23.340;2022-12-07T14:12:59;95187.75;;;11.88;100.00
39937;BME280;27803;42.740;23.340;2022-12-07T14:15:30;95208.53;;;11.83;100.00
39937;BME280;27803;42.740;23.340;2022-12-07T14:17:57;95198.28;;;11.75;100.00
39937;BME280;27803;42.740;23.340;2022-12-07T14:22:58;95203.63;;;11.49;100.00
39937;BME280;27803;42.740;23.340;2022-12-07T14:25:26;95198.22;;;11.37;100.00
39937;BME280;27803;42.740;23.340;2022-12-07T14:27:57;95193.97;;;11.43;100.00
39937;BME280;27803;42.740;23.340;2022-12-07T14:30:28;95189.22;;;11.13;100.00
39937;BME280;27803;42.740;23.340;2022-12-07T14:33:00;95194.28;;;11.08;100.00
39937;BME280;27803;42.740;23.340;2022-12-07T14:35:26;95194.69;;;11.05;100.00
39937;BME280;27803;42.740;23.340;2022-12-07T14:37:52;95193.06;;;11.04;100.00
39937;BME280;27803;42.740;23.340;2022-12-07T14:40:20;95165.34;;;10.76;100.00
39937;BME280;27803;42.740;23.340;2022-12-07T14:42:48;95190.31;;;10.79;100.00
39937;BME280;27803;42.740;23.340;2022-12-07T14:45:20;95192.13;;;10.65;100.00
39937;BME280;27803;42.740;23.340;2022-12-07T14:47:47;95176.69;;;10.37;100.00
39937;BME280;27803;42.740;23.340;2022-12-07T14:50:15;95173.88;;;10.32;100.00
39937;BME280;27803;42.740;23.340;2022-12-07T14:52:42;95204.81;;;10.42;100.00
39937;BME280;27803;42.740;23.340;2022-12-07T14:55:14;95213.22;;;10.11;100.00